sensor_id;sensor_type;location;lat;lon;timestamp;P1;durP1;ratioP1;P2;durP2;ratioP2
81320;SDS011;70785;52.570;5.638;2023-06-22T00:02:14;36.50;;;21.00;;
81320;SDS011;70785;52.570;5.638;2023-06-22T00:04:40;36.50;;;22.23;;
81320;SDS011;70785;52.570;5.638;2023-06-22T00:07:06;34.08;;;22.27;;
81320;SDS011;70785;52.570;5.638;2023-06-22T00:09:32;33.28;;;20.33;;
81320;SDS011;70785;52.570;5.638;2023-06-22T00:11:58;32.50;;;20.77;;
81320;SDS011;70785;52.570;5.638;2023-06-22T00:14:25;34.38;;;21.45;;
81320;SDS011;70785;52.570;5.638;2023-06-22T00:16:51;36.67;;;22.08;;
81320;SDS011;70785;52.570;5.638;2023-06-22T00:19:21;36.72;;;23.48;;
81320;SDS011;70785;52.570;5.638;2023-06-22T00:21:47;33.80;;;20.88;;
81320;SDS011;70785;52.570;5.638;2023-06-22T00:24:21;31.50;;;19.60;;
81320;SDS011;70785;52.570;5.638;2023-06-22T00:26:48;32.40;;;20.77;;
81320;SDS011;70785;52.570;5.638;2023-06-22T00:29:15;32.38;;;18.88;;
81320;SDS011;70785;52.570;5.638;2023-06-22T00:31:42;31.05;;;20.50;;
81320;SDS011;70785;52.570;5.638;2023-06-22T00:34:08;32.30;;;19.92;;
81320;SDS011;70785;52.570;5.638;2023-06-22T00:36:35;31.15;;;21.33;;
81320;SDS011;70785;52.570;5.638;2023-06-22T00:39:02;33.90;;;20.63;;
81320;SDS011;70785;52.570;5.638;2023-06-22T00:41:29;32.97;;;19.80;;
81320;SDS011;70785;52.570;5.638;2023-06-22T00:43:56;35.05;;;21.63;;
81320;SDS011;70785;52.570;5.638;2023-06-22T00:46:23;30.80;;;19.98;;
81320;SDS011;70785;52.570;5.638;2023-06-22T00:48:50;34.45;;;21.45;;
81320;SDS011;70785;52.570;5.638;2023-06-22T00:51:18;30.05;;;20.33;;
81320;SDS011;70785;52.570;5.638;2023-06-22T00:53:46;30.20;;;19.55;;
81320;SDS011;70785;52.570;5.638;2023-06-22T00:56:13;32.38;;;19.70;;
81320;SDS011;70785;52.570;5.638;2023-06-22T00:58:39;30.67;;;20.33;;
81320;SDS011;70785;52.570;5.638;2023-06-22T01:01:07;34.15;;;20.17;;
81320;SDS011;70785;52.570;5.638;2023-06-22T01:03:33;36.22;;;21.45;;
81320;SDS011;70785;52.570;5.638;2023-06-22T01:08:57;35.13;;;21.75;;
81320;SDS011;70785;52.570;5.638;2023-06-22T01:11:38;29.52;;;18.88;;
81320;SDS011;70785;52.570;5.638;2023-06-22T01:14:35;33.00;;;20.48;;
81320;SDS011;70785;52.570;5.638;2023-06-22T01:17:03;36.60;;;20.45;;
81320;SDS011;70785;52.570;5.638;2023-06-22T01:19:43;32.47;;;20.42;;
81320;SDS011;70785;52.570;5.638;2023-06-22T01:22:22;39.85;;;19.77;;
81320;SDS011;70785;52.570;5.638;2023-06-22T01:30:11;35.70;;;20.38;;
81320;SDS011;70785;52.570;5.638;2023-06-22T01:32:38;33.80;;;20.88;;
81320;SDS011;70785;52.570;5.638;2023-06-22T01:35:06;36.70;;;21.60;;
81320;SDS011;70785;52.570;5.638;2023-06-22T01:37:35;37.50;;;22.00;;
81320;SDS011;70785;52.570;5.638;2023-06-22T01:40:03;36.17;;;22.40;;
81320;SDS011;70785;52.570;5.638;2023-06-22T01:42:34;33.88;;;21.33;;
81320;SDS011;70785;52.570;5.638;2023-06-22T01:45:02;34.08;;;21.27;;
81320;SDS011;70785;52.570;5.638;2023-06-22T01:47:29;35.95;;;19.95;;
81320;SDS011;70785;52.570;5.638;2023-06-22T01:49:56;40.45;;;21.92;;
81320;SDS011;70785;52.570;5.638;2023-06-22T01:52:22;37.33;;;22.60;;
81320;SDS011;70785;52.570;5.638;2023-06-22T01:54:48;36.17;;;21.55;;
81320;SDS011;70785;52.570;5.638;2023-06-22T01:57:15;33.78;;;19.95;;
81320;SDS011;70785;52.570;5.638;2023-06-22T02:04:54;36.58;;;21.60;;
81320;SDS011;70785;52.570;5.638;2023-06-22T02:07:24;39.67;;;24.17;;
81320;SDS011;70785;52.570;5.638;2023-06-22T02:09:55;34.45;;;20.95;;
81320;SDS011;70785;52.570;5.638;2023-06-22T02:12:24;36.80;;;23.10;;
81320;SDS011;70785;52.570;5.638;2023-06-22T02:14:53;38.00;;;23.67;;
81320;SDS011;70785;52.570;5.638;2023-06-22T02:17:19;40.88;;;24.92;;
81320;SDS011;70785;52.570;5.638;2023-06-22T02:19:46;39.85;;;24.00;;
81320;SDS011;70785;52.570;5.638;2023-06-22T02:22:13;38.42;;;23.98;;
81320;SDS011;70785;52.570;5.638;2023-06-22T02:24:40;34.15;;;23.02;;
81320;SDS011;70785;52.570;5.638;2023-06-22T02:27:06;36.33;;;21.45;;
81320;SDS011;70785;52.570;5.638;2023-06-22T02:29:32;32.28;;;20.33;;
81320;SDS011;70785;52.570;5.638;2023-06-22T02:31:59;35.22;;;22.13;;
81320;SDS011;70785;52.570;5.638;2023-06-22T02:34:25;36.58;;;22.33;;
81320;SDS011;70785;52.570;5.638;2023-06-22T02:36:51;38.45;;;24.20;;
81320;SDS011;70785;52.570;5.638;2023-06-22T02:39:21;36.75;;;21.80;;
81320;SDS011;70785;52.570;5.638;2023-06-22T02:41:51;37.83;;;24.38;;
81320;SDS011;70785;52.570;5.638;2023-06-22T02:44:19;36.15;;;23.40;;
81320;SDS011;70785;52.570;5.638;2023-06-22T02:46:47;37.20;;;24.27;;
81320;SDS011;70785;52.570;5.638;2023-06-22T02:49:15;41.00;;;22.88;;
81320;SDS011;70785;52.570;5.638;2023-06-22T02:51:44;38.25;;;21.65;;
81320;SDS011;70785;52.570;5.638;2023-06-22T02:54:12;44.22;;;25.23;;
81320;SDS011;70785;52.570;5.638;2023-06-22T02:56:38;43.42;;;27.45;;
81320;SDS011;70785;52.570;5.638;2023-06-22T02:59:06;37.70;;;24.90;;
81320;SDS011;70785;52.570;5.638;2023-06-22T03:01:37;43.50;;;26.27;;
81320;SDS011;70785;52.570;5.638;2023-06-22T03:04:08;44.53;;;26.85;;
81320;SDS011;70785;52.570;5.638;2023-06-22T03:06:35;47.50;;;25.90;;
81320;SDS011;70785;52.570;5.638;2023-06-22T03:09:02;37.28;;;22.73;;
81320;SDS011;70785;52.570;5.638;2023-06-22T03:11:30;43.60;;;25.33;;
81320;SDS011;70785;52.570;5.638;2023-06-22T03:13:58;47.65;;;28.25;;
81320;SDS011;70785;52.570;5.638;2023-06-22T03:16:24;48.85;;;26.73;;
81320;SDS011;70785;52.570;5.638;2023-06-22T03:18:52;52.88;;;31.02;;
81320;SDS011;70785;52.570;5.638;2023-06-22T03:21:22;46.08;;;27.23;;
81320;SDS011;70785;52.570;5.638;2023-06-22T03:23:49;43.97;;;26.75;;
81320;SDS011;70785;52.570;5.638;2023-06-22T03:26:16;42.97;;;25.75;;
81320;SDS011;70785;52.570;5.638;2023-06-22T03:28:43;46.30;;;28.63;;
81320;SDS011;70785;52.570;5.638;2023-06-22T03:31:09;51.10;;;28.23;;
81320;SDS011;70785;52.570;5.638;2023-06-22T03:33:37;49.25;;;29.10;;
81320;SDS011;70785;52.570;5.638;2023-06-22T03:36:03;51.05;;;29.05;;
81320;SDS011;70785;52.570;5.638;2023-06-22T03:38:29;42.88;;;27.98;;
81320;SDS011;70785;52.570;5.638;2023-06-22T03:40:57;45.20;;;28.58;;
81320;SDS011;70785;52.570;5.638;2023-06-22T03:43:23;50.47;;;30.10;;
81320;SDS011;70785;52.570;5.638;2023-06-22T03:45:49;53.28;;;29.88;;
81320;SDS011;70785;52.570;5.638;2023-06-22T03:48:15;51.65;;;29.73;;
81320;SDS011;70785;52.570;5.638;2023-06-22T03:50:41;50.08;;;30.10;;
81320;SDS011;70785;52.570;5.638;2023-06-22T03:53:09;52.67;;;28.48;;
81320;SDS011;70785;52.570;5.638;2023-06-22T03:55:36;46.47;;;27.63;;
81320;SDS011;70785;52.570;5.638;2023-06-22T03:58:02;53.05;;;28.25;;
81320;SDS011;70785;52.570;5.638;2023-06-22T04:00:31;50.90;;;30.45;;
81320;SDS011;70785;52.570;5.638;2023-06-22T04:02:58;54.45;;;31.20;;
81320;SDS011;70785;52.570;5.638;2023-06-22T04:05:24;47.15;;;28.42;;
81320;SDS011;70785;52.570;5.638;2023-06-22T04:07:50;48.03;;;27.98;;
81320;SDS011;70785;52.570;5.638;2023-06-22T04:10:16;50.83;;;28.65;;
81320;SDS011;70785;52.570;5.638;2023-06-22T04:12:42;50.58;;;29.42;;
81320;SDS011;70785;52.570;5.638;2023-06-22T04:15:08;53.60;;;33.33;;
81320;SDS011;70785;52.570;5.638;2023-06-22T04:17:35;52.72;;;30.65;;
81320;SDS011;70785;52.570;5.638;2023-06-22T04:20:01;53.78;;;32.00;;
81320;SDS011;70785;52.570;5.638;2023-06-22T04:22:28;52.00;;;30.33;;
81320;SDS011;70785;52.570;5.638;2023-06-22T04:24:54;54.70;;;32.17;;
81320;SDS011;70785;52.570;5.638;2023-06-22T04:27:20;56.53;;;29.92;;
81320;SDS011;70785;52.570;5.638;2023-06-22T04:29:48;53.17;;;31.33;;
81320;SDS011;70785;52.570;5.638;2023-06-22T04:32:15;56.35;;;31.83;;
81320;SDS011;70785;52.570;5.638;2023-06-22T04:34:41;51.53;;;29.60;;
81320;SDS011;70785;52.570;5.638;2023-06-22T04:37:08;47.22;;;30.25;;
81320;SDS011;70785;52.570;5.638;2023-06-22T04:39:34;54.63;;;30.42;;
81320;SDS011;70785;52.570;5.638;2023-06-22T04:42:01;47.90;;;28.60;;
81320;SDS011;70785;52.570;5.638;2023-06-22T04:44:27;46.25;;;27.25;;
81320;SDS011;70785;52.570;5.638;2023-06-22T04:46:57;52.00;;;29.55;;
81320;SDS011;70785;52.570;5.638;2023-06-22T04:49:29;49.38;;;27.38;;
81320;SDS011;70785;52.570;5.638;2023-06-22T04:52:00;43.67;;;29.52;;
81320;SDS011;70785;52.570;5.638;2023-06-22T04:54:26;48.45;;;30.13;;
81320;SDS011;70785;52.570;5.638;2023-06-22T04:56:53;45.22;;;28.42;;
81320;SDS011;70785;52.570;5.638;2023-06-22T04:59:22;46.08;;;27.77;;
81320;SDS011;70785;52.570;5.638;2023-06-22T05:01:55;33.78;;;21.20;;
81320;SDS011;70785;52.570;5.638;2023-06-22T05:04:22;38.17;;;25.42;;
81320;SDS011;70785;52.570;5.638;2023-06-22T05:06:51;37.00;;;23.23;;
81320;SDS011;70785;52.570;5.638;2023-06-22T05:09:17;39.88;;;26.05;;
81320;SDS011;70785;52.570;5.638;2023-06-22T05:11:44;34.13;;;21.48;;
81320;SDS011;70785;52.570;5.638;2023-06-22T05:14:11;31.75;;;22.65;;
81320;SDS011;70785;52.570;5.638;2023-06-22T05:16:37;36.85;;;24.83;;
81320;SDS011;70785;52.570;5.638;2023-06-22T05:19:04;32.08;;;19.52;;
81320;SDS011;70785;52.570;5.638;2023-06-22T05:21:30;34.72;;;24.67;;
81320;SDS011;70785;52.570;5.638;2023-06-22T05:23:57;35.63;;;24.15;;
81320;SDS011;70785;52.570;5.638;2023-06-22T05:26:26;35.97;;;24.98;;
81320;SDS011;70785;52.570;5.638;2023-06-22T05:28:52;36.22;;;25.77;;
81320;SDS011;70785;52.570;5.638;2023-06-22T05:31:19;36.05;;;23.20;;
81320;SDS011;70785;52.570;5.638;2023-06-22T05:33:46;35.70;;;24.52;;
81320;SDS011;70785;52.570;5.638;2023-06-22T05:36:13;34.67;;;25.67;;
81320;SDS011;70785;52.570;5.638;2023-06-22T05:38:40;35.42;;;23.40;;
81320;SDS011;70785;52.570;5.638;2023-06-22T05:41:07;37.80;;;24.20;;
81320;SDS011;70785;52.570;5.638;2023-06-22T05:43:33;35.33;;;24.40;;
81320;SDS011;70785;52.570;5.638;2023-06-22T05:46:00;39.90;;;27.00;;
81320;SDS011;70785;52.570;5.638;2023-06-22T05:48:27;39.75;;;23.13;;
81320;SDS011;70785;52.570;5.638;2023-06-22T05:50:53;41.35;;;27.05;;
81320;SDS011;70785;52.570;5.638;2023-06-22T05:53:20;38.33;;;26.60;;
81320;SDS011;70785;52.570;5.638;2023-06-22T05:55:46;37.00;;;27.00;;
81320;SDS011;70785;52.570;5.638;2023-06-22T05:58:12;41.42;;;26.00;;
81320;SDS011;70785;52.570;5.638;2023-06-22T06:00:39;36.50;;;23.90;;
81320;SDS011;70785;52.570;5.638;2023-06-22T06:03:09;37.95;;;23.92;;
81320;SDS011;70785;52.570;5.638;2023-06-22T06:05:36;40.53;;;24.73;;
81320;SDS011;70785;52.570;5.638;2023-06-22T06:08:04;34.45;;;24.13;;
81320;SDS011;70785;52.570;5.638;2023-06-22T06:10:31;35.97;;;22.05;;
81320;SDS011;70785;52.570;5.638;2023-06-22T06:12:58;34.50;;;23.30;;
81320;SDS011;70785;52.570;5.638;2023-06-22T06:15:27;34.92;;;22.10;;
81320;SDS011;70785;52.570;5.638;2023-06-22T06:17:54;33.45;;;23.38;;
81320;SDS011;70785;52.570;5.638;2023-06-22T06:20:21;32.30;;;21.27;;
81320;SDS011;70785;52.570;5.638;2023-06-22T06:22:48;37.22;;;22.45;;
81320;SDS011;70785;52.570;5.638;2023-06-22T06:25:15;36.33;;;23.30;;
81320;SDS011;70785;52.570;5.638;2023-06-22T06:27:48;37.83;;;23.70;;
81320;SDS011;70785;52.570;5.638;2023-06-22T06:30:16;35.83;;;23.77;;
81320;SDS011;70785;52.570;5.638;2023-06-22T06:32:44;34.58;;;23.45;;
81320;SDS011;70785;52.570;5.638;2023-06-22T06:35:11;32.25;;;21.67;;
81320;SDS011;70785;52.570;5.638;2023-06-22T06:37:39;35.58;;;21.45;;
81320;SDS011;70785;52.570;5.638;2023-06-22T06:40:06;35.55;;;22.08;;
81320;SDS011;70785;52.570;5.638;2023-06-22T06:42:42;33.53;;;21.73;;
81320;SDS011;70785;52.570;5.638;2023-06-22T06:45:20;30.15;;;19.88;;
81320;SDS011;70785;52.570;5.638;2023-06-22T06:47:48;30.52;;;20.85;;
81320;SDS011;70785;52.570;5.638;2023-06-22T06:50:16;31.10;;;21.02;;
81320;SDS011;70785;52.570;5.638;2023-06-22T06:52:42;30.95;;;20.83;;
81320;SDS011;70785;52.570;5.638;2023-06-22T06:55:09;27.00;;;19.05;;
81320;SDS011;70785;52.570;5.638;2023-06-22T06:57:40;33.20;;;23.17;;
81320;SDS011;70785;52.570;5.638;2023-06-22T07:00:07;34.25;;;20.73;;
81320;SDS011;70785;52.570;5.638;2023-06-22T07:02:40;31.42;;;21.58;;
81320;SDS011;70785;52.570;5.638;2023-06-22T07:07:33;32.85;;;23.25;;
81320;SDS011;70785;52.570;5.638;2023-06-22T07:10:00;31.52;;;20.88;;
81320;SDS011;70785;52.570;5.638;2023-06-22T07:12:27;31.27;;;20.38;;
81320;SDS011;70785;52.570;5.638;2023-06-22T07:14:53;26.25;;;17.08;;
81320;SDS011;70785;52.570;5.638;2023-06-22T07:17:19;26.92;;;18.95;;
81320;SDS011;70785;52.570;5.638;2023-06-22T07:19:45;23.92;;;17.42;;
81320;SDS011;70785;52.570;5.638;2023-06-22T07:22:11;24.52;;;16.77;;
81320;SDS011;70785;52.570;5.638;2023-06-22T07:24:37;23.02;;;15.65;;
81320;SDS011;70785;52.570;5.638;2023-06-22T07:27:04;23.50;;;14.60;;
81320;SDS011;70785;52.570;5.638;2023-06-22T07:29:32;23.20;;;15.45;;
81320;SDS011;70785;52.570;5.638;2023-06-22T07:31:58;25.50;;;19.13;;
81320;SDS011;70785;52.570;5.638;2023-06-22T07:34:26;25.77;;;18.30;;
81320;SDS011;70785;52.570;5.638;2023-06-22T07:36:52;25.60;;;17.42;;
81320;SDS011;70785;52.570;5.638;2023-06-22T07:39:18;23.85;;;17.38;;
81320;SDS011;70785;52.570;5.638;2023-06-22T07:41:47;17.83;;;14.32;;
81320;SDS011;70785;52.570;5.638;2023-06-22T07:44:13;21.90;;;14.98;;
81320;SDS011;70785;52.570;5.638;2023-06-22T07:46:40;21.25;;;14.50;;
81320;SDS011;70785;52.570;5.638;2023-06-22T07:49:06;20.33;;;15.90;;
81320;SDS011;70785;52.570;5.638;2023-06-22T07:51:33;17.75;;;12.98;;
81320;SDS011;70785;52.570;5.638;2023-06-22T07:54:00;18.73;;;14.43;;
81320;SDS011;70785;52.570;5.638;2023-06-22T07:56:26;21.02;;;13.77;;
81320;SDS011;70785;52.570;5.638;2023-06-22T07:58:52;17.42;;;12.25;;
81320;SDS011;70785;52.570;5.638;2023-06-22T08:01:18;17.77;;;11.95;;
81320;SDS011;70785;52.570;5.638;2023-06-22T08:03:49;17.40;;;11.95;;
81320;SDS011;70785;52.570;5.638;2023-06-22T08:06:15;21.13;;;14.55;;
81320;SDS011;70785;52.570;5.638;2023-06-22T08:08:42;19.95;;;13.85;;
81320;SDS011;70785;52.570;5.638;2023-06-22T08:11:08;18.45;;;12.07;;
81320;SDS011;70785;52.570;5.638;2023-06-22T08:13:35;16.60;;;11.70;;
81320;SDS011;70785;52.570;5.638;2023-06-22T08:16:01;18.98;;;14.90;;
81320;SDS011;70785;52.570;5.638;2023-06-22T08:18:27;17.85;;;13.90;;
81320;SDS011;70785;52.570;5.638;2023-06-22T08:20:53;16.45;;;12.45;;
81320;SDS011;70785;52.570;5.638;2023-06-22T08:23:20;16.63;;;11.48;;
81320;SDS011;70785;52.570;5.638;2023-06-22T08:25:46;15.02;;;11.90;;
81320;SDS011;70785;52.570;5.638;2023-06-22T08:28:13;16.73;;;12.90;;
81320;SDS011;70785;52.570;5.638;2023-06-22T08:30:39;23.35;;;14.77;;
81320;SDS011;70785;52.570;5.638;2023-06-22T08:33:05;17.77;;;12.15;;
81320;SDS011;70785;52.570;5.638;2023-06-22T08:35:31;17.42;;;14.18;;
81320;SDS011;70785;52.570;5.638;2023-06-22T08:37:58;16.90;;;11.73;;
81320;SDS011;70785;52.570;5.638;2023-06-22T08:40:25;17.23;;;13.55;;
81320;SDS011;70785;52.570;5.638;2023-06-22T08:42:51;16.27;;;12.65;;
81320;SDS011;70785;52.570;5.638;2023-06-22T08:45:17;18.17;;;12.68;;
81320;SDS011;70785;52.570;5.638;2023-06-22T08:47:43;15.73;;;12.93;;
81320;SDS011;70785;52.570;5.638;2023-06-22T08:50:10;17.65;;;13.48;;
81320;SDS011;70785;52.570;5.638;2023-06-22T08:52:37;17.58;;;11.38;;
81320;SDS011;70785;52.570;5.638;2023-06-22T08:55:07;18.88;;;13.52;;
81320;SDS011;70785;52.570;5.638;2023-06-22T08:57:34;16.48;;;11.15;;
81320;SDS011;70785;52.570;5.638;2023-06-22T09:00:03;16.08;;;10.85;;
81320;SDS011;70785;52.570;5.638;2023-06-22T09:02:33;15.48;;;11.35;;
81320;SDS011;70785;52.570;5.638;2023-06-22T09:04:59;16.10;;;12.20;;
81320;SDS011;70785;52.570;5.638;2023-06-22T09:07:28;20.20;;;12.52;;
81320;SDS011;70785;52.570;5.638;2023-06-22T09:09:55;14.57;;;11.48;;
81320;SDS011;70785;52.570;5.638;2023-06-22T09:12:21;12.63;;;10.43;;
81320;SDS011;70785;52.570;5.638;2023-06-22T09:14:51;16.90;;;12.30;;
81320;SDS011;70785;52.570;5.638;2023-06-22T09:17:17;15.70;;;11.73;;
81320;SDS011;70785;52.570;5.638;2023-06-22T09:19:43;16.35;;;12.35;;
81320;SDS011;70785;52.570;5.638;2023-06-22T09:22:10;15.82;;;13.02;;
81320;SDS011;70785;52.570;5.638;2023-06-22T09:24:36;18.83;;;12.25;;
81320;SDS011;70785;52.570;5.638;2023-06-22T09:27:02;16.80;;;12.70;;
81320;SDS011;70785;52.570;5.638;2023-06-22T09:29:28;16.98;;;11.95;;
81320;SDS011;70785;52.570;5.638;2023-06-22T09:31:54;14.85;;;11.68;;
81320;SDS011;70785;52.570;5.638;2023-06-22T09:34:21;13.07;;;11.00;;
81320;SDS011;70785;52.570;5.638;2023-06-22T09:36:47;15.00;;;9.32;;
81320;SDS011;70785;52.570;5.638;2023-06-22T09:39:13;16.20;;;11.93;;
81320;SDS011;70785;52.570;5.638;2023-06-22T09:41:39;14.38;;;9.93;;
81320;SDS011;70785;52.570;5.638;2023-06-22T09:44:06;14.63;;;11.57;;
81320;SDS011;70785;52.570;5.638;2023-06-22T09:46:32;13.98;;;11.43;;
81320;SDS011;70785;52.570;5.638;2023-06-22T09:48:58;14.57;;;10.73;;
81320;SDS011;70785;52.570;5.638;2023-06-22T09:51:24;12.43;;;10.70;;
81320;SDS011;70785;52.570;5.638;2023-06-22T09:53:50;12.90;;;9.98;;
81320;SDS011;70785;52.570;5.638;2023-06-22T09:56:17;13.27;;;9.63;;
81320;SDS011;70785;52.570;5.638;2023-06-22T09:58:44;12.25;;;8.88;;
81320;SDS011;70785;52.570;5.638;2023-06-22T10:01:12;12.00;;;9.80;;
81320;SDS011;70785;52.570;5.638;2023-06-22T10:03:40;13.55;;;9.40;;
81320;SDS011;70785;52.570;5.638;2023-06-22T10:06:07;13.00;;;10.52;;
81320;SDS011;70785;52.570;5.638;2023-06-22T10:08:37;12.73;;;10.80;;
81320;SDS011;70785;52.570;5.638;2023-06-22T10:11:03;11.57;;;10.23;;
81320;SDS011;70785;52.570;5.638;2023-06-22T10:13:29;12.20;;;8.70;;
81320;SDS011;70785;52.570;5.638;2023-06-22T10:15:55;11.15;;;9.27;;
81320;SDS011;70785;52.570;5.638;2023-06-22T10:18:21;10.65;;;8.75;;
81320;SDS011;70785;52.570;5.638;2023-06-22T10:20:49;13.70;;;8.20;;
81320;SDS011;70785;52.570;5.638;2023-06-22T10:23:19;12.20;;;8.05;;
81320;SDS011;70785;52.570;5.638;2023-06-22T10:25:45;11.27;;;8.13;;
81320;SDS011;70785;52.570;5.638;2023-06-22T10:28:12;10.43;;;7.78;;
81320;SDS011;70785;52.570;5.638;2023-06-22T10:30:38;8.48;;;7.50;;
81320;SDS011;70785;52.570;5.638;2023-06-22T10:35:37;10.00;;;5.93;;
81320;SDS011;70785;52.570;5.638;2023-06-22T10:38:04;9.63;;;6.90;;
81320;SDS011;70785;52.570;5.638;2023-06-22T10:40:31;7.60;;;6.65;;
81320;SDS011;70785;52.570;5.638;2023-06-22T10:42:57;6.93;;;5.43;;
81320;SDS011;70785;52.570;5.638;2023-06-22T10:45:23;12.25;;;7.32;;
81320;SDS011;70785;52.570;5.638;2023-06-22T10:47:49;8.77;;;5.75;;
81320;SDS011;70785;52.570;5.638;2023-06-22T10:50:15;11.02;;;7.50;;
81320;SDS011;70785;52.570;5.638;2023-06-22T10:52:42;8.68;;;6.65;;
81320;SDS011;70785;52.570;5.638;2023-06-22T10:55:08;9.43;;;6.78;;
81320;SDS011;70785;52.570;5.638;2023-06-22T10:57:35;7.82;;;7.03;;
81320;SDS011;70785;52.570;5.638;2023-06-22T11:00:02;8.35;;;5.57;;
81320;SDS011;70785;52.570;5.638;2023-06-22T11:02:31;8.27;;;7.35;;
81320;SDS011;70785;52.570;5.638;2023-06-22T11:04:57;7.00;;;5.47;;
81320;SDS011;70785;52.570;5.638;2023-06-22T11:07:26;9.75;;;7.72;;
81320;SDS011;70785;52.570;5.638;2023-06-22T11:09:55;9.93;;;6.70;;
81320;SDS011;70785;52.570;5.638;2023-06-22T11:12:21;8.75;;;5.47;;
81320;SDS011;70785;52.570;5.638;2023-06-22T11:14:47;9.45;;;5.60;;
81320;SDS011;70785;52.570;5.638;2023-06-22T11:17:15;5.55;;;4.57;;
81320;SDS011;70785;52.570;5.638;2023-06-22T11:19:41;7.90;;;5.82;;
81320;SDS011;70785;52.570;5.638;2023-06-22T11:22:07;7.80;;;4.85;;
81320;SDS011;70785;52.570;5.638;2023-06-22T11:24:34;10.02;;;8.05;;
81320;SDS011;70785;52.570;5.638;2023-06-22T11:27:00;8.55;;;6.25;;
81320;SDS011;70785;52.570;5.638;2023-06-22T11:29:26;9.02;;;6.50;;
81320;SDS011;70785;52.570;5.638;2023-06-22T11:31:52;11.40;;;7.30;;
81320;SDS011;70785;52.570;5.638;2023-06-22T11:34:18;7.88;;;7.03;;
81320;SDS011;70785;52.570;5.638;2023-06-22T11:36:44;7.88;;;5.55;;
81320;SDS011;70785;52.570;5.638;2023-06-22T11:39:11;9.55;;;5.57;;
81320;SDS011;70785;52.570;5.638;2023-06-22T11:41:39;7.35;;;6.03;;
81320;SDS011;70785;52.570;5.638;2023-06-22T11:44:05;6.97;;;4.95;;
81320;SDS011;70785;52.570;5.638;2023-06-22T11:46:32;5.38;;;4.50;;
81320;SDS011;70785;52.570;5.638;2023-06-22T11:48:58;6.45;;;5.22;;
81320;SDS011;70785;52.570;5.638;2023-06-22T11:51:24;8.45;;;5.85;;
81320;SDS011;70785;52.570;5.638;2023-06-22T11:53:50;5.80;;;4.75;;
81320;SDS011;70785;52.570;5.638;2023-06-22T11:56:17;7.25;;;5.68;;
81320;SDS011;70785;52.570;5.638;2023-06-22T11:58:43;7.00;;;5.07;;
81320;SDS011;70785;52.570;5.638;2023-06-22T12:01:09;6.85;;;4.75;;
81320;SDS011;70785;52.570;5.638;2023-06-22T12:03:35;8.13;;;5.07;;
81320;SDS011;70785;52.570;5.638;2023-06-22T12:06:01;6.72;;;4.85;;
81320;SDS011;70785;52.570;5.638;2023-06-22T12:08:27;8.93;;;5.35;;
81320;SDS011;70785;52.570;5.638;2023-06-22T12:10:54;11.30;;;6.20;;
81320;SDS011;70785;52.570;5.638;2023-06-22T12:13:20;8.80;;;5.30;;
81320;SDS011;70785;52.570;5.638;2023-06-22T12:15:46;6.47;;;5.60;;
81320;SDS011;70785;52.570;5.638;2023-06-22T12:18:12;8.35;;;6.70;;
81320;SDS011;70785;52.570;5.638;2023-06-22T12:20:40;7.97;;;6.45;;
81320;SDS011;70785;52.570;5.638;2023-06-22T12:23:06;8.02;;;6.05;;
81320;SDS011;70785;52.570;5.638;2023-06-22T12:25:32;8.18;;;5.97;;
81320;SDS011;70785;52.570;5.638;2023-06-22T12:27:58;6.82;;;6.05;;
81320;SDS011;70785;52.570;5.638;2023-06-22T12:30:24;8.50;;;5.43;;
81320;SDS011;70785;52.570;5.638;2023-06-22T12:32:50;9.05;;;5.82;;
81320;SDS011;70785;52.570;5.638;2023-06-22T12:35:17;7.55;;;5.70;;
81320;SDS011;70785;52.570;5.638;2023-06-22T12:37:43;7.70;;;6.63;;
81320;SDS011;70785;52.570;5.638;2023-06-22T12:40:09;8.05;;;5.88;;
81320;SDS011;70785;52.570;5.638;2023-06-22T12:42:36;9.55;;;6.40;;
81320;SDS011;70785;52.570;5.638;2023-06-22T12:45:02;8.05;;;6.25;;
81320;SDS011;70785;52.570;5.638;2023-06-22T12:47:28;9.48;;;6.53;;
81320;SDS011;70785;52.570;5.638;2023-06-22T12:49:54;7.63;;;6.78;;
81320;SDS011;70785;52.570;5.638;2023-06-22T12:52:20;8.85;;;6.25;;
81320;SDS011;70785;52.570;5.638;2023-06-22T12:54:47;7.68;;;6.65;;
81320;SDS011;70785;52.570;5.638;2023-06-22T12:57:13;8.20;;;6.45;;
81320;SDS011;70785;52.570;5.638;2023-06-22T12:59:40;9.70;;;6.80;;
81320;SDS011;70785;52.570;5.638;2023-06-22T13:02:06;7.82;;;5.65;;
81320;SDS011;70785;52.570;5.638;2023-06-22T13:04:32;9.38;;;6.10;;
81320;SDS011;70785;52.570;5.638;2023-06-22T13:06:58;8.35;;;7.40;;
81320;SDS011;70785;52.570;5.638;2023-06-22T13:09:24;7.88;;;6.50;;
81320;SDS011;70785;52.570;5.638;2023-06-22T13:11:50;9.07;;;7.50;;
81320;SDS011;70785;52.570;5.638;2023-06-22T13:14:17;9.10;;;7.00;;
81320;SDS011;70785;52.570;5.638;2023-06-22T13:16:44;7.78;;;6.65;;
81320;SDS011;70785;52.570;5.638;2023-06-22T13:19:10;9.30;;;6.50;;
81320;SDS011;70785;52.570;5.638;2023-06-22T13:21:36;7.53;;;6.35;;
81320;SDS011;70785;52.570;5.638;2023-06-22T13:24:02;9.98;;;6.88;;
81320;SDS011;70785;52.570;5.638;2023-06-22T13:26:29;9.00;;;6.82;;
81320;SDS011;70785;52.570;5.638;2023-06-22T13:28:55;9.02;;;7.18;;
81320;SDS011;70785;52.570;5.638;2023-06-22T13:31:21;11.38;;;8.43;;
81320;SDS011;70785;52.570;5.638;2023-06-22T13:33:47;9.35;;;7.97;;
81320;SDS011;70785;52.570;5.638;2023-06-22T13:36:14;8.77;;;7.00;;
81320;SDS011;70785;52.570;5.638;2023-06-22T13:38:40;8.32;;;6.82;;
81320;SDS011;70785;52.570;5.638;2023-06-22T13:41:07;10.15;;;7.03;;
81320;SDS011;70785;52.570;5.638;2023-06-22T13:43:33;9.98;;;7.55;;
81320;SDS011;70785;52.570;5.638;2023-06-22T13:45:59;8.68;;;7.63;;
81320;SDS011;70785;52.570;5.638;2023-06-22T13:48:25;9.75;;;8.75;;
81320;SDS011;70785;52.570;5.638;2023-06-22T13:50:51;9.55;;;7.90;;
81320;SDS011;70785;52.570;5.638;2023-06-22T13:53:18;11.48;;;7.72;;
81320;SDS011;70785;52.570;5.638;2023-06-22T13:55:44;9.10;;;8.20;;
81320;SDS011;70785;52.570;5.638;2023-06-22T13:58:10;7.90;;;6.95;;
81320;SDS011;70785;52.570;5.638;2023-06-22T14:00:36;8.52;;;6.80;;
81320;SDS011;70785;52.570;5.638;2023-06-22T14:03:02;8.48;;;7.57;;
81320;SDS011;70785;52.570;5.638;2023-06-22T14:05:29;11.38;;;7.32;;
81320;SDS011;70785;52.570;5.638;2023-06-22T14:07:55;10.98;;;8.77;;
81320;SDS011;70785;52.570;5.638;2023-06-22T14:10:21;8.98;;;7.32;;
81320;SDS011;70785;52.570;5.638;2023-06-22T14:12:47;9.85;;;8.55;;
81320;SDS011;70785;52.570;5.638;2023-06-22T14:15:13;8.13;;;7.25;;
81320;SDS011;70785;52.570;5.638;2023-06-22T14:17:39;10.77;;;7.50;;
81320;SDS011;70785;52.570;5.638;2023-06-22T14:20:05;8.43;;;7.03;;
81320;SDS011;70785;52.570;5.638;2023-06-22T14:22:33;10.13;;;7.65;;
81320;SDS011;70785;52.570;5.638;2023-06-22T14:25:01;11.43;;;8.00;;
81320;SDS011;70785;52.570;5.638;2023-06-22T14:27:27;9.60;;;7.85;;
81320;SDS011;70785;52.570;5.638;2023-06-22T14:29:53;9.13;;;7.75;;
81320;SDS011;70785;52.570;5.638;2023-06-22T14:32:19;8.55;;;7.53;;
81320;SDS011;70785;52.570;5.638;2023-06-22T14:34:45;10.40;;;8.13;;
81320;SDS011;70785;52.570;5.638;2023-06-22T14:37:11;9.73;;;7.80;;
81320;SDS011;70785;52.570;5.638;2023-06-22T14:39:38;10.25;;;8.50;;
81320;SDS011;70785;52.570;5.638;2023-06-22T14:42:08;10.40;;;7.15;;
81320;SDS011;70785;52.570;5.638;2023-06-22T14:44:34;10.63;;;7.75;;
81320;SDS011;70785;52.570;5.638;2023-06-22T14:47:00;10.27;;;9.25;;